Time;durP1;ratioP1;P1;durP2;ratioP2;P2;SDS_P1;SDS_P2;PMS_P1;PMS_P2;Temp;Humidity;BMP_temperature;BMP_pressure;BME280_temperature;BME280_humidity;BME280_pressure;Samples;Min_cycle;Max_cycle;Signal;HPM_P1;HPM_P2
2022/01/12 00:03:24;;;;;;;3.20;2.90;;;;;;;5.89;57.11;102101.03;10476132;28;20140;-71
2022/01/12 00:08:26;;;;;;;3.08;2.63;;;;;;;5.92;56.50;102108.84;10485443;28;20051;-71
2022/01/12 00:13:27;;;;;;;3.15;2.63;;;;;;;5.92;56.54;102111.50;10514188;28;20053;-71
2022/01/12 00:18:30;;;;;;;3.17;2.88;;;;;;;5.97;57.01;102111.38;10480004;28;20053;-71
2022/01/12 00:23:32;;;;;;;3.05;2.78;;;;;;;5.94;56.44;102114.94;10489630;28;20131;-71
2022/01/12 00:34:01;;;;;;;2.95;2.38;;;;;;;5.87;56.44;102108.16;10487344;28;20123;-56
2022/01/12 00:39:06;;;;;;;3.25;2.78;;;;;;;5.83;56.73;102106.50;10475094;28;20127;-56
2022/01/12 00:44:10;;;;;;;3.55;3.25;;;;;;;5.82;56.52;102115.34;10481756;28;20063;-57
2022/01/12 00:49:12;;;;;;;3.40;2.43;;;;;;;5.83;57.00;102125.00;10480901;28;20068;-57
2022/01/12 00:54:14;;;;;;;3.08;2.65;;;;;;;5.79;57.20;102115.44;10477840;28;20305;-57
2022/01/12 00:59:15;;;;;;;3.25;2.95;;;;;;;5.80;57.17;102117.16;10478924;28;20139;-56
2022/01/12 01:04:16;;;;;;;2.35;2.10;;;;;;;5.80;57.17;102118.03;10481783;28;20540;-56
2022/01/12 01:09:18;;;;;;;2.60;2.25;;;;;;;5.62;56.62;102098.31;10484830;28;20135;-56
2022/01/12 01:14:32;;;;;;;2.47;1.90;;;;;;;5.63;56.85;102099.16;10486627;28;20248;-56
2022/01/12 01:30:16;;;;;;;2.63;1.70;;;;;;;5.26;57.43;102105.56;10485488;28;20249;-57
2022/01/12 01:35:18;;;;;;;2.78;1.58;;;;;;;5.16;58.11;102110.22;10485012;28;20101;-57
2022/01/12 01:40:20;;;;;;;3.92;1.40;;;;;;;5.13;57.58;102115.59;10486944;28;20134;-57
2022/01/12 01:56:03;;;;;;;3.33;2.45;;;;;;;5.08;58.39;102117.50;10480463;28;20448;-57
2022/01/12 02:01:06;;;;;;;2.45;2.25;;;;;;;5.03;58.60;102120.28;10495213;28;20078;-56
2022/01/12 02:06:08;;;;;;;2.53;2.33;;;;;;;4.96;58.80;102114.28;10486856;28;20434;-58
2022/01/12 02:11:09;;;;;;;3.85;3.20;;;;;;;4.97;58.62;102120.44;10482247;28;20161;-55
2022/01/12 02:16:11;;;;;;;3.97;2.55;;;;;;;4.93;59.00;102130.19;10482831;28;20123;-56
2022/01/12 02:42:59;;;;;;;2.80;2.60;;;;;;;4.79;59.41;102127.06;10484417;28;20138;-57
2022/01/12 02:58:43;;;;;;;2.88;2.67;;;;;;;4.74;59.44;102123.69;10481465;28;20047;-57
2022/01/12 03:03:47;;;;;;;2.83;2.45;;;;;;;4.74;59.75;102118.41;10480814;28;20075;-57
2022/01/12 03:08:50;;;;;;;3.57;3.00;;;;;;;4.66;59.11;102141.50;10479856;28;20123;-57
2022/01/12 03:13:52;;;;;;;5.50;3.03;;;;;;;4.66;59.78;102137.06;10478458;28;20052;-56
2022/01/12 03:18:56;;;;;;;2.97;2.72;;;;;;;4.63;61.08;102142.44;10478567;28;20166;-56
2022/01/12 03:23:57;;;;;;;3.65;3.13;;;;;;;4.69;60.04;102157.25;10480060;28;20086;-57
2022/01/12 03:29:00;;;;;;;3.95;3.40;;;;;;;4.66;60.64;102159.97;10484262;28;20067;-56
2022/01/12 03:34:08;;;;;;;3.30;2.88;;;;;;;4.54;60.47;102151.44;10481882;28;20131;-58
2022/01/12 03:39:11;;;;;;;2.92;2.72;;;;;;;4.54;62.40;102177.81;10478013;28;20123;-56
2022/01/12 03:44:13;;;;;;;3.67;3.35;;;;;;;4.55;61.37;102174.28;10475201;28;20146;-57
2022/01/12 03:49:17;;;;;;;4.50;3.05;;;;;;;4.38;60.58;102157.97;10473128;28;20075;-56
2022/01/12 03:54:19;;;;;;;3.58;3.28;;;;;;;4.49;60.79;102182.34;10474621;28;20123;-56
2022/01/12 03:59:20;;;;;;;4.28;3.88;;;;;;;4.49;62.16;102177.06;10480823;28;20065;-57
2022/01/12 04:04:30;;;;;;;4.45;4.05;;;;;;;4.51;60.70;102175.25;10472919;28;20131;-56
2022/01/12 04:09:31;;;;;;;5.22;3.25;;;;;;;4.57;61.27;102184.78;10484950;28;20131;-56
2022/01/12 04:14:33;;;;;;;3.75;3.35;;;;;;;4.59;62.24;102191.75;10478116;28;20064;-56
2022/01/12 04:19:36;;;;;;;4.43;4.03;;;;;;;4.64;60.57;102181.09;10477216;28;20142;-56
2022/01/12 04:24:38;;;;;;;4.72;4.20;;;;;;;4.69;61.14;102183.63;10478116;28;20083;-56
2022/01/12 04:29:40;;;;;;;5.50;4.20;;;;;;;4.77;62.46;102165.81;10479321;28;20699;-56
2022/01/12 04:34:42;;;;;;;4.03;3.63;;;;;;;4.72;59.89;102165.06;10477647;28;20143;-58
2022/01/12 04:39:43;;;;;;;4.82;3.50;;;;;;;4.54;61.04;102138.25;10470587;28;20137;-56
2022/01/12 04:44:48;;;;;;;4.90;4.50;;;;;;;4.67;61.60;102159.03;10481697;28;20064;-56
2022/01/12 04:49:49;;;;;;;6.70;4.15;;;;;;;4.72;60.49;102151.88;10480589;28;20882;-56
2022/01/12 04:54:50;;;;;;;4.55;4.15;;;;;;;4.49;61.75;102148.06;10478886;28;20588;-56
2022/01/12 05:00:05;;;;;;;4.30;3.90;;;;;;;4.49;61.41;102149.81;10475169;28;20130;-56
2022/01/12 05:15:32;;;;;;;4.93;4.15;;;;;;;4.49;62.48;102165.63;10474517;28;20048;-57
2022/01/12 05:20:34;;;;;;;4.90;4.43;;;;;;;4.53;63.49;102162.88;10475647;28;20747;-56
2022/01/12 05:25:36;;;;;;;5.03;4.55;;;;;;;4.54;62.35;102169.88;10473387;28;20128;-57
2022/01/12 05:30:37;;;;;;;5.63;4.43;;;;;;;4.50;61.84;102168.22;10480218;28;20617;-57
2022/01/12 05:35:39;;;;;;;5.03;4.60;;;;;;;4.42;62.21;102170.19;10482110;28;20151;-55
2022/01/12 05:40:45;;;;;;;4.22;3.83;;;;;;;4.55;62.02;102181.34;10475004;28;20090;-54
2022/01/12 05:45:47;;;;;;;5.72;4.63;;;;;;;4.58;60.93;102182.09;10475624;28;20446;-55
2022/01/12 05:50:50;;;;;;;8.18;6.47;;;;;;;4.53;61.31;102204.22;10477227;28;20156;-54
2022/01/12 05:55:52;;;;;;;7.93;6.35;;;;;;;4.43;61.15;102193.91;10480416;28;20044;-56
2022/01/12 06:00:54;;;;;;;28.40;17.85;;;;;;;4.48;61.36;102192.94;10464691;28;20048;-54
2022/01/12 06:05:55;;;;;;;23.85;16.00;;;;;;;4.53;62.05;102189.25;10481101;28;20044;-57
2022/01/12 06:10:56;;;;;;;54.90;32.97;;;;;;;4.68;62.06;102214.38;10470881;28;21374;-55
2022/01/12 06:15:58;;;;;;;34.92;22.05;;;;;;;4.64;61.49;102220.66;10483371;27;20813;-56
2022/01/12 06:20:59;;;;;;;8.07;6.50;;;;;;;4.41;61.66;102215.91;10478418;27;20044;-56
2022/01/12 06:26:01;;;;;;;5.00;4.50;;;;;;;4.30;61.83;102210.03;10483673;27;20121;-56
2022/01/12 06:31:11;;;;;;;4.80;4.30;;;;;;;4.21;62.59;102233.06;10475622;27;20129;-57
2022/01/12 06:36:19;;;;;;;4.82;4.32;;;;;;;4.13;63.20;102227.09;10478925;28;20044;-56
2022/01/12 06:41:21;;;;;;;6.05;5.28;;;;;;;4.07;63.22;102221.97;10481169;27;20103;-55
2022/01/12 06:46:26;;;;;;;5.38;4.80;;;;;;;4.01;64.06;102214.22;10478784;27;20101;-56
2022/01/12 06:51:28;;;;;;;5.25;4.75;;;;;;;4.00;64.32;102215.94;10480041;27;20145;-55
2022/01/12 06:56:29;;;;;;;6.13;5.53;;;;;;;4.00;64.36;102220.38;10478406;28;20344;-56
2022/01/12 07:01:31;;;;;;;6.30;5.38;;;;;;;4.17;64.69;102260.38;10483004;28;20504;-56
2022/01/12 07:06:34;;;;;;;5.90;5.30;;;;;;;4.22;64.02;102269.06;10484310;27;20051;-57
2022/01/12 07:11:36;;;;;;;6.32;5.35;;;;;;;4.21;64.06;102282.28;10476810;28;20063;-56
2022/01/12 07:16:37;;;;;;;7.70;6.78;;;;;;;4.25;63.70;102289.25;10488897;28;20051;-55
2022/01/12 07:21:39;;;;;;;7.55;6.30;;;;;;;4.18;64.37;102301.66;10479723;28;20047;-56
2022/01/12 07:26:40;;;;;;;8.70;6.22;;;;;;;4.22;63.87;102311.25;10486719;28;20053;-56
2022/01/12 07:31:41;;;;;;;9.73;7.15;;;;;;;4.34;63.84;102314.53;10480733;27;20197;-57
2022/01/12 07:36:43;;;;;;;7.07;5.85;;;;;;;4.38;64.62;102326.75;10485128;28;20047;-57
2022/01/12 07:41:44;;;;;;;9.48;6.10;;;;;;;4.31;64.04;102317.22;10481846;27;20056;-54
2022/01/12 07:46:46;;;;;;;7.00;5.40;;;;;;;4.16;64.82;102316.66;10491510;27;20139;-57
2022/01/12 07:51:47;;;;;;;7.90;6.55;;;;;;;4.19;65.33;102337.69;10488908;27;20146;-55
2022/01/12 07:56:49;;;;;;;8.93;5.75;;;;;;;4.14;65.52;102334.25;10486831;28;20101;-56
2022/01/12 08:01:50;;;;;;;8.55;5.93;;;;;;;4.20;65.27;102343.81;10485615;28;20428;-57
2022/01/12 08:06:52;;;;;;;9.65;6.45;;;;;;;4.19;65.27;102353.50;10484036;28;20052;-57
2022/01/12 08:11:54;;;;;;;8.13;6.82;;;;;;;3.98;65.74;102340.72;10481322;28;20060;-56
2022/01/12 08:16:55;;;;;;;8.70;6.32;;;;;;;4.05;65.88;102355.53;10481252;28;20159;-56
2022/01/12 08:22:04;;;;;;;7.88;6.30;;;;;;;3.97;66.60;102349.56;10483476;28;20176;-57
2022/01/12 08:27:07;;;;;;;7.97;7.17;;;;;;;3.91;66.73;102347.03;10490128;27;20139;-56
2022/01/12 08:32:08;;;;;;;7.00;6.30;;;;;;;4.00;66.73;102362.69;10482596;28;20277;-56
2022/01/12 08:37:10;;;;;;;10.35;7.13;;;;;;;3.96;66.53;102356.56;10492235;28;20054;-58
2022/01/12 08:42:11;;;;;;;9.70;7.50;;;;;;;4.14;66.06;102384.34;10487374;27;20138;-56
2022/01/12 08:47:16;;;;;;;7.82;7.03;;;;;;;4.20;65.97;102381.63;10488512;28;20055;-55
2022/01/12 08:52:18;;;;;;;10.95;7.60;;;;;;;4.10;65.96;102380.06;10480468;28;20108;-55
2022/01/12 08:57:19;;;;;;;10.23;8.65;;;;;;;4.32;65.53;102376.97;10486022;28;20469;-54
2022/01/12 09:02:21;;;;;;;9.32;7.60;;;;;;;4.63;64.88;102374.56;10484286;28;20104;-54
2022/01/12 09:07:22;;;;;;;9.80;8.10;;;;;;;4.75;64.34;102376.94;10487574;28;20708;-55
2022/01/12 09:12:24;;;;;;;9.00;7.60;;;;;;;4.84;64.16;102375.84;10479307;28;20831;-56
2022/01/12 09:17:25;;;;;;;11.02;8.15;;;;;;;5.03;63.68;102388.63;10486828;28;20139;-56
2022/01/12 09:22:27;;;;;;;11.80;8.25;;;;;;;5.23;62.83;102393.47;10486665;28;20059;-56
2022/01/12 09:27:28;;;;;;;10.88;7.80;;;;;;;5.29;62.03;102394.16;10481137;28;20065;-57
2022/01/12 09:32:30;;;;;;;10.27;7.18;;;;;;;4.93;62.61;102377.44;10491345;28;20056;-57
2022/01/12 09:37:31;;;;;;;9.88;7.40;;;;;;;5.03;62.50;102396.53;10492352;28;20152;-57
2022/01/12 09:42:33;;;;;;;9.50;8.40;;;;;;;4.82;62.77;102379.44;10483102;28;20099;-56
2022/01/12 09:47:34;;;;;;;9.00;7.63;;;;;;;5.64;61.39;102416.22;10491614;27;20139;-57
2022/01/12 09:52:36;;;;;;;9.32;7.28;;;;;;;6.06;58.34;102420.44;10490315;27;20051;-54
2022/01/12 09:57:37;;;;;;;10.02;6.78;;;;;;;6.15;57.30;102424.63;10494120;27;20059;-55
2022/01/12 10:02:41;;;;;;;9.07;6.75;;;;;;;6.15;57.93;102435.19;10494327;27;20086;-55
2022/01/12 10:07:43;;;;;;;8.27;6.80;;;;;;;6.42;57.47;102420.31;10495581;28;20051;-55
2022/01/12 10:12:55;;;;;;;10.82;7.85;;;;;;;6.62;56.89;102424.19;10492336;27;20068;-56
2022/01/12 10:18:02;;;;;;;9.05;7.88;;;;;;;6.40;56.71;102414.22;10489773;28;20127;-56
2022/01/12 10:23:10;;;;;;;14.15;8.35;;;;;;;6.36;57.60;102410.81;10493632;27;20127;-55
2022/01/12 10:28:19;;;;;;;9.52;7.93;;;;;;;6.39;56.99;102406.34;10493296;27;20135;-55
2022/01/12 10:33:23;;;;;;;9.90;8.40;;;;;;;6.44;56.83;102413.22;10490201;28;20127;-55
2022/01/12 10:38:26;;;;;;;8.02;7.22;;;;;;;6.82;56.38;102426.25;10495476;27;20051;-56
2022/01/12 10:43:31;;;;;;;10.30;7.72;;;;;;;8.01;52.75;102410.00;10493701;28;20147;-54
2022/01/12 10:48:43;;;;;;;9.50;7.97;;;;;;;11.05;46.02;102391.22;10493813;27;20052;-56
2022/01/12 10:53:44;;;;;;;10.07;8.07;;;;;;;10.21;44.94;102397.75;10493117;28;20521;-55
2022/01/12 10:58:49;;;;;;;9.38;7.18;;;;;;;11.04;44.18;102338.88;10492916;27;20102;-55
2022/01/12 11:03:50;;;;;;;11.15;8.70;;;;;;;12.85;39.53;102402.38;10491587;27;20131;-55
2022/01/12 11:08:52;;;;;;;9.70;7.65;;;;;;;12.14;41.08;102400.88;10490062;28;20159;-56
2022/01/12 11:13:53;;;;;;;10.35;9.25;;;;;;;11.56;42.21;102388.72;10484575;28;20124;-54
2022/01/12 11:18:57;;;;;;;9.85;8.05;;;;;;;11.67;41.38;102387.25;10484552;28;20052;-54
2022/01/12 11:24:00;;;;;;;8.85;7.32;;;;;;;11.68;41.05;102383.63;10486930;27;20118;-55
2022/01/12 11:29:03;;;;;;;9.77;8.80;;;;;;;11.14;41.89;102374.81;10484641;28;20151;-56
2022/01/12 11:34:05;;;;;;;8.47;7.67;;;;;;;11.84;41.89;102361.50;10481131;28;20159;-55
2022/01/12 11:39:14;;;;;;;11.07;7.82;;;;;;;12.69;38.62;102352.47;10487521;27;20055;-56
2022/01/12 11:44:20;;;;;;;8.32;7.53;;;;;;;11.18;41.34;102356.84;10487800;27;20047;-55
2022/01/12 11:49:37;;;;;;;8.95;8.05;;;;;;;11.66;41.52;102358.84;10486686;28;20835;-56
2022/01/12 11:54:43;;;;;;;8.45;7.65;;;;;;;12.05;38.90;102335.50;10492296;27;20509;-56
2022/01/12 12:00:04;;;;;;;9.63;7.55;;;;;;;12.84;38.36;102349.91;10490764;27;20474;-55
2022/01/12 12:05:11;;;;;;;8.20;7.40;;;;;;;16.65;31.92;102348.66;10494611;28;20137;-55
2022/01/12 12:10:17;;;;;;;9.13;8.20;;;;;;;17.10;30.98;102344.41;10491918;27;20139;-55
2022/01/12 12:15:19;;;;;;;8.13;7.30;;;;;;;17.84;29.11;102348.69;10479302;28;20071;-55
2022/01/12 12:20:23;;;;;;;6.45;5.80;;;;;;;19.73;26.50;102332.31;10490515;28;20644;-58
2022/01/12 12:25:32;;;;;;;6.18;5.68;;;;;;;22.24;22.76;102327.38;10484196;28;20457;-55
2022/01/12 12:30:36;;;;;;;6.35;5.75;;;;;;;23.98;20.89;102306.25;10482170;22;20126;-54
2022/01/12 12:35:40;;;;;;;6.18;5.55;;;;;;;24.78;20.06;102315.06;10482793;28;20051;-54
2022/01/12 12:40:43;;;;;;;6.05;5.45;;;;;;;25.44;19.41;102306.91;10481857;28;20227;-55
2022/01/12 12:45:52;;;;;;;5.45;4.95;;;;;;;25.47;18.72;102314.75;10483612;28;20048;-55
2022/01/12 12:51:13;;;;;;;4.85;4.45;;;;;;;25.37;18.48;102329.41;10474572;28;20055;-55
2022/01/12 12:56:20;;;;;;;5.00;4.60;;;;;;;26.04;18.08;102325.53;10469640;28;20922;-55
2022/01/12 13:01:24;;;;;;;4.70;4.20;;;;;;;26.45;17.53;102321.78;10471692;28;20516;-55
2022/01/12 13:06:31;;;;;;;4.53;4.13;;;;;;;26.37;17.99;102325.41;10480856;28;20044;-56
2022/01/12 13:11:44;;;;;;;6.80;5.03;;;;;;;26.82;17.08;102320.22;10486664;28;20475;-53
2022/01/12 13:16:48;;;;;;;5.03;4.53;;;;;;;22.83;20.75;102343.34;10483058;28;20133;-56
2022/01/12 13:21:50;;;;;;;5.65;5.05;;;;;;;18.63;25.71;102340.63;10482298;28;20190;-56
2022/01/12 13:26:54;;;;;;;6.93;6.28;;;;;;;16.05;30.11;102349.31;10466066;28;20633;-55
2022/01/12 13:31:56;;;;;;;6.95;6.15;;;;;;;14.85;32.99;102363.63;10484802;28;20119;-55
2022/01/12 13:36:57;;;;;;;8.93;6.78;;;;;;;13.67;35.60;102361.13;10473141;28;20128;-55
2022/01/12 13:41:59;;;;;;;8.70;7.75;;;;;;;13.05;35.79;102354.00;10466375;28;20060;-56
2022/01/12 13:47:24;;;;;;;8.82;7.00;;;;;;;12.90;37.09;102347.72;10477454;28;20055;-56
2022/01/12 13:52:26;;;;;;;7.68;6.97;;;;;;;12.20;37.67;102357.84;10479428;28;20056;-56
2022/01/12 13:57:27;;;;;;;8.40;7.60;;;;;;;11.62;39.37;102335.06;10484215;28;20142;-56
2022/01/12 14:02:30;;;;;;;9.25;7.38;;;;;;;11.37;40.31;102325.66;10482301;28;20055;-57
2022/01/12 14:07:38;;;;;;;10.30;7.30;;;;;;;11.23;40.75;102318.38;10483541;28;20052;-56
2022/01/12 14:12:48;;;;;;;6.68;6.05;;;;;;;10.93;41.85;102332.28;10465328;28;20524;-55
2022/01/12 14:17:51;;;;;;;7.63;6.75;;;;;;;10.69;41.75;102322.78;10473532;28;20512;-57
2022/01/12 14:22:52;;;;;;;8.32;7.03;;;;;;;10.57;42.00;102334.94;10484087;28;20256;-57
2022/01/12 14:27:54;;;;;;;9.32;6.97;;;;;;;10.58;42.77;102332.19;10480562;28;20048;-55
2022/01/12 14:32:55;;;;;;;8.43;6.93;;;;;;;10.72;42.27;102334.19;10480899;28;20048;-55
2022/01/12 14:37:57;;;;;;;7.38;6.55;;;;;;;10.26;42.76;102318.53;10483849;28;20067;-56
2022/01/12 14:43:02;;;;;;;7.60;6.88;;;;;;;10.09;43.70;102307.81;10488199;28;20640;-55
2022/01/12 14:48:06;;;;;;;8.30;7.15;;;;;;;10.16;44.15;102327.88;10464163;28;20050;-56
2022/01/12 14:53:10;;;;;;;8.38;7.30;;;;;;;9.96;43.66;102285.38;10480649;28;20501;-55
2022/01/12 14:58:21;;;;;;;15.35;9.30;;;;;;;10.17;44.38;102323.44;10477022;28;20059;-58
2022/01/12 15:03:23;;;;;;;7.55;6.32;;;;;;;10.21;44.78;102317.88;10474909;28;20680;-57
2022/01/12 15:08:25;;;;;;;12.55;9.40;;;;;;;10.03;45.30;102324.06;10468539;28;20052;-56
2022/01/12 15:13:41;;;;;;;7.72;6.90;;;;;;;9.75;46.16;102324.44;10460013;28;20059;-56
2022/01/12 15:18:42;;;;;;;8.82;7.45;;;;;;;9.32;46.66;102322.69;10472611;28;20074;-56
2022/01/12 15:23:44;;;;;;;8.13;7.07;;;;;;;8.87;48.38;102336.91;10468500;28;20056;-55
2022/01/12 15:28:45;;;;;;;9.20;6.53;;;;;;;8.11;48.37;102328.31;10476900;28;20135;-55
2022/01/12 15:33:47;;;;;;;9.90;7.00;;;;;;;8.12;50.21;102346.84;10478926;28;20497;-56
2022/01/12 15:38:49;;;;;;;7.93;6.68;;;;;;;8.11;49.66;102342.44;10477403;28;20207;-56
2022/01/12 15:43:50;;;;;;;13.43;8.75;;;;;;;7.83;52.10;102336.41;10475849;28;20277;-55
2022/01/12 15:48:52;;;;;;;8.80;6.93;;;;;;;8.27;50.60;102331.25;10457315;28;20047;-56
2022/01/12 15:53:53;;;;;;;9.43;7.63;;;;;;;8.25;50.12;102336.63;10476097;28;20054;-56
2022/01/12 15:58:55;;;;;;;8.10;7.18;;;;;;;8.25;50.23;102330.44;10481463;28;20121;-56
2022/01/12 16:03:57;;;;;;;7.95;7.13;;;;;;;8.20;52.06;102343.03;10478841;28;20074;-56
2022/01/12 16:08:59;;;;;;;8.40;7.47;;;;;;;8.32;51.60;102350.53;10471303;28;20079;-55
2022/01/12 16:14:00;;;;;;;12.32;8.43;;;;;;;8.33;51.34;102362.84;10461371;28;20044;-56
2022/01/12 16:19:07;;;;;;;9.77;7.38;;;;;;;8.34;51.58;102356.63;10474316;28;20043;-55
2022/01/12 16:24:11;;;;;;;8.57;7.70;;;;;;;8.17;50.92;102351.06;10474034;28;20055;-56
2022/01/12 16:29:13;;;;;;;9.10;7.97;;;;;;;8.12;51.73;102349.47;10471270;28;20056;-58
2022/01/12 16:34:15;;;;;;;11.07;8.48;;;;;;;8.09;51.50;102348.72;10468309;28;20062;-55
2022/01/12 16:39:16;;;;;;;10.75;9.48;;;;;;;8.05;51.24;102358.59;10447352;28;20062;-56
2022/01/12 16:44:18;;;;;;;10.27;9.18;;;;;;;8.04;52.04;102367.44;10470374;28;20044;-56
2022/01/12 16:49:19;;;;;;;12.00;9.40;;;;;;;7.84;52.33;102365.53;10469351;28;20131;-56
2022/01/12 16:54:21;;;;;;;10.07;8.95;;;;;;;7.77;52.15;102386.06;10458887;28;20050;-57
2022/01/12 16:59:22;;;;;;;12.68;10.45;;;;;;;7.67;53.31;102382.03;10476803;28;20123;-54
2022/01/12 17:04:24;;;;;;;9.48;8.48;;;;;;;7.79;53.47;102389.56;10479227;28;20166;-54
2022/01/12 17:09:26;;;;;;;11.82;9.55;;;;;;;7.72;53.21;102392.47;10479495;28;20064;-56
2022/01/12 17:14:27;;;;;;;10.30;8.32;;;;;;;7.63;53.56;102395.41;10477869;28;20051;-55
2022/01/12 17:19:35;;;;;;;11.88;7.95;;;;;;;7.54;54.56;102391.31;10472866;28;20048;-57
2022/01/12 17:25:08;;;;;;;10.07;7.30;;;;;;;7.63;55.22;102403.34;10472048;28;20052;-55
2022/01/12 17:30:09;;;;;;;9.45;7.55;;;;;;;7.58;55.51;102404.41;10475710;28;20047;-56
2022/01/12 17:35:11;;;;;;;8.35;7.40;;;;;;;7.56;56.18;102408.00;10471554;28;20184;-57
2022/01/12 17:40:12;;;;;;;7.03;6.22;;;;;;;7.42;56.94;102403.19;10480635;28;20072;-56
2022/01/12 17:45:14;;;;;;;7.90;6.30;;;;;;;7.42;57.38;102425.22;10474060;28;20154;-54
2022/01/12 17:50:18;;;;;;;10.38;9.27;;;;;;;7.38;57.35;102414.78;10473933;28;20173;-56
2022/01/12 17:55:25;;;;;;;10.38;9.38;;;;;;;7.31;57.85;102422.09;10486491;28;20055;-55
2022/01/12 18:00:29;;;;;;;10.27;8.18;;;;;;;7.27;57.98;102436.34;10480167;28;20076;-60
2022/01/12 18:05:31;;;;;;;10.82;9.43;;;;;;;7.38;59.99;102431.53;10473343;28;20784;-56
2022/01/12 18:10:32;;;;;;;9.63;8.73;;;;;;;7.36;58.27;102427.22;10485909;28;20056;-57
2022/01/12 18:15:41;;;;;;;10.15;9.13;;;;;;;7.27;58.18;102444.28;10488307;28;20055;-58
2022/01/12 18:20:43;;;;;;;13.88;10.20;;;;;;;7.16;58.38;102456.97;10467845;28;20051;-54
2022/01/12 18:25:44;;;;;;;14.38;10.25;;;;;;;7.05;58.66;102444.06;10479930;28;20112;-54
2022/01/12 18:30:46;;;;;;;15.10;11.02;;;;;;;6.91;58.69;102441.84;10477932;28;20058;-55
2022/01/12 18:35:47;;;;;;;13.18;10.93;;;;;;;6.84;58.76;102451.75;10471774;28;20060;-56
2022/01/12 18:40:50;;;;;;;12.00;10.50;;;;;;;6.79;60.01;102434.28;10475570;28;20073;-56
2022/01/12 18:45:52;;;;;;;11.38;10.13;;;;;;;6.64;60.07;102427.66;10475983;28;20123;-55
2022/01/12 18:50:55;;;;;;;11.32;10.07;;;;;;;6.63;60.51;102458.53;10482746;28;20416;-55
2022/01/12 18:55:57;;;;;;;11.02;9.90;;;;;;;6.45;61.32;102457.28;10477596;28;20047;-56
2022/01/12 19:00:58;;;;;;;13.68;11.43;;;;;;;6.26;61.44;102461.34;10474846;28;20595;-63
2022/01/12 19:06:20;;;;;;;11.90;10.68;;;;;;;6.23;62.06;102480.84;10478323;28;20428;-54
2022/01/12 19:11:21;;;;;;;12.23;10.93;;;;;;;6.09;62.82;102472.38;10485764;28;20067;-56
2022/01/12 19:16:24;;;;;;;13.27;11.30;;;;;;;6.07;63.32;102490.06;10482550;28;20062;-56
2022/01/12 19:21:26;;;;;;;12.40;10.25;;;;;;;5.86;62.95;102470.31;10481950;28;20115;-56
2022/01/12 19:26:28;;;;;;;13.25;10.35;;;;;;;5.82;62.96;102490.66;10453148;28;20052;-57
2022/01/12 19:31:30;;;;;;;12.60;10.05;;;;;;;5.97;62.60;102498.22;10471704;28;20063;-58
2022/01/12 19:36:32;;;;;;;13.48;12.05;;;;;;;5.92;62.56;102492.16;10475794;28;20063;-56
2022/01/12 19:41:33;;;;;;;11.27;10.18;;;;;;;5.67;62.88;102481.31;10476051;28;20056;-55
2022/01/12 19:46:35;;;;;;;11.07;9.93;;;;;;;5.70;63.06;102505.03;10479480;28;20060;-56
2022/01/12 19:51:53;;;;;;;12.48;11.00;;;;;;;5.61;63.48;102514.03;10480050;28;20063;-56
2022/01/12 19:57:06;;;;;;;13.27;10.73;;;;;;;5.48;64.14;102502.91;10470306;28;20055;-55
2022/01/12 20:02:41;;;;;;;11.73;10.40;;;;;;;5.46;64.28;102499.44;10476134;28;21523;-57
2022/01/12 20:07:43;;;;;;;11.95;10.57;;;;;;;5.38;64.31;102519.00;10421799;28;20040;-58
2022/01/12 20:12:45;;;;;;;12.80;10.77;;;;;;;5.37;64.18;102522.53;10474853;28;20040;-56
2022/01/12 20:21:41;;;;;;;12.65;10.20;;;;;;;5.30;64.08;102519.19;10475378;28;20074;-55
2022/01/12 20:23:12;;;;;;;12.10;9.82;;;;;;;4.73;64.42;102450.00;10474576;28;20063;-56
2022/01/12 20:28:13;;;;;;;11.38;10.25;;;;;;;5.08;64.39;102513.50;10468432;28;20816;-56
2022/01/12 20:33:14;;;;;;;12.30;11.07;;;;;;;4.95;63.76;102532.22;10473230;28;20132;-56
2022/01/12 20:38:17;;;;;;;14.43;12.15;;;;;;;4.83;64.70;102540.38;10473801;28;20047;-56
2022/01/12 20:43:18;;;;;;;17.02;12.95;;;;;;;4.47;66.73;102542.81;10464636;28;20505;-56
2022/01/12 20:48:20;;;;;;;15.27;13.45;;;;;;;4.15;67.83;102544.25;10466270;28;20058;-57
2022/01/12 20:53:23;;;;;;;16.75;14.57;;;;;;;4.25;67.78;102558.16;10472823;28;20112;-57
2022/01/12 20:58:24;;;;;;;16.80;14.35;;;;;;;4.18;67.51;102544.19;10458417;28;20051;-56
2022/01/12 21:03:31;;;;;;;18.38;15.48;;;;;;;4.29;67.88;102533.47;10464526;28;20048;-56
2022/01/12 21:08:35;;;;;;;17.38;15.57;;;;;;;4.26;67.74;102538.78;10467348;28;20048;-58
2022/01/12 21:13:37;;;;;;;16.83;14.32;;;;;;;4.20;67.65;102545.06;10474728;28;20106;-56
2022/01/12 21:18:38;;;;;;;16.70;14.80;;;;;;;4.22;67.66;102535.34;10459671;28;20052;-57
2022/01/12 21:23:40;;;;;;;19.08;16.52;;;;;;;4.19;67.71;102547.72;10467540;28;20051;-57
2022/01/12 21:28:42;;;;;;;19.90;16.23;;;;;;;4.22;67.96;102542.41;10475040;28;20135;-57
2022/01/12 21:33:43;;;;;;;19.63;15.73;;;;;;;4.22;68.08;102553.81;10481725;28;20411;-57
2022/01/12 21:38:54;;;;;;;17.98;14.82;;;;;;;4.21;67.83;102557.31;10480746;22;20084;-64
2022/01/12 21:43:58;;;;;;;19.23;15.15;;;;;;;4.28;67.67;102559.84;10494960;28;20051;-64
2022/01/12 21:49:01;;;;;;;19.38;16.13;;;;;;;3.90;69.54;102541.16;10487073;28;20062;-64
2022/01/12 21:54:03;;;;;;;17.95;15.43;;;;;;;4.05;70.33;102545.31;10487666;28;20148;-64
2022/01/12 21:59:05;;;;;;;16.98;14.75;;;;;;;4.15;68.42;102546.88;10486124;28;20493;-64
2022/01/12 22:04:07;;;;;;;17.13;14.05;;;;;;;4.10;68.50;102540.84;10488363;28;20528;-65
2022/01/12 22:09:09;;;;;;;17.38;15.32;;;;;;;4.25;68.27;102543.22;10487491;28;20180;-64
2022/01/12 22:14:11;;;;;;;19.55;15.43;;;;;;;4.28;68.23;102551.94;10482976;28;20159;-63
2022/01/12 22:19:12;;;;;;;19.85;16.17;;;;;;;4.30;68.32;102548.41;10484497;28;20048;-64
2022/01/12 22:24:14;;;;;;;17.15;15.32;;;;;;;4.36;68.50;102544.78;10480357;28;20530;-64
2022/01/12 22:29:15;;;;;;;20.02;16.10;;;;;;;4.38;68.49;102558.81;10477779;28;20048;-64
2022/01/12 22:34:16;;;;;;;18.92;15.88;;;;;;;4.41;68.60;102556.09;10490987;28;20075;-64
2022/01/12 22:39:18;;;;;;;19.13;16.10;;;;;;;4.48;68.51;102564.81;10481107;28;20480;-66
2022/01/12 22:44:20;;;;;;;17.88;14.45;;;;;;;4.47;68.58;102558.63;10470434;28;20045;-64
2022/01/12 22:49:21;;;;;;;18.52;15.07;;;;;;;4.55;68.85;102555.88;10476588;28;20130;-64
2022/01/12 22:54:25;;;;;;;20.55;17.23;;;;;;;4.55;69.13;102567.28;10485407;28;20083;-64
2022/01/12 22:59:26;;;;;;;17.27;14.60;;;;;;;4.69;68.86;102568.81;10487965;28;20056;-64
2022/01/12 23:04:28;;;;;;;17.98;15.07;;;;;;;4.65;69.29;102567.97;10485624;28;20056;-64
2022/01/12 23:09:29;;;;;;;17.80;14.55;;;;;;;4.71;69.42;102559.09;10491745;28;20052;-65
2022/01/12 23:14:31;;;;;;;16.40;14.38;;;;;;;4.77;69.11;102572.16;10480518;28;20060;-65
2022/01/12 23:19:32;;;;;;;16.85;13.18;;;;;;;4.70;69.60;102566.13;10485973;28;20076;-63
2022/01/12 23:24:34;;;;;;;14.68;11.82;;;;;;;4.73;69.46;102576.63;10478315;28;20049;-64
2022/01/12 23:29:35;;;;;;;11.35;9.05;;;;;;;4.66;69.48;102572.38;10488770;28;21001;-63
2022/01/12 23:56:05;;;;;;;10.75;9.32;;;;;;;4.75;68.86;102590.66;10472954;28;20134;-63
